createdAt,value
2023-05-07T00:04:48.033Z,16.20
2023-05-07T00:15:14.901Z,14.10
2023-05-07T00:25:40.447Z,13.40
2023-05-07T00:36:07.429Z,14.40
2023-05-07T00:46:35.174Z,14.00
2023-05-07T00:57:01.480Z,10.50
2023-05-07T01:07:28.217Z,11.70
2023-05-07T01:17:54.422Z,14.50
2023-05-07T01:28:20.482Z,13.30
2023-05-07T01:38:47.052Z,14.40
2023-05-07T01:49:12.960Z,10.00
2023-05-07T01:59:38.954Z,12.10
2023-05-07T02:10:05.158Z,9.70
2023-05-07T02:20:31.056Z,11.20
2023-05-07T02:30:56.798Z,10.30
2023-05-07T02:41:22.908Z,9.70
2023-05-07T02:51:49.070Z,13.90
2023-05-07T03:02:14.966Z,12.70
2023-05-07T03:12:40.956Z,10.00
2023-05-07T03:23:06.815Z,9.60
2023-05-07T03:33:35.510Z,19.80
2023-05-07T03:44:00.821Z,13.00
2023-05-07T03:54:26.977Z,12.60
2023-05-07T04:04:54.427Z,12.70
2023-05-07T04:15:20.236Z,12.10
2023-05-07T04:25:46.360Z,10.30
2023-05-07T04:36:12.671Z,10.30
2023-05-07T04:46:38.660Z,7.50
2023-05-07T04:57:05.910Z,8.50
2023-05-07T05:07:31.998Z,6.00
2023-05-07T05:17:58.228Z,4.50
2023-05-07T05:28:27.142Z,4.80
2023-05-07T05:38:52.896Z,7.80
2023-05-07T05:49:18.508Z,5.00
2023-05-07T05:59:43.946Z,4.80
2023-05-07T06:10:11.198Z,5.60
2023-05-07T06:20:36.829Z,5.10
2023-05-07T06:31:16.873Z,3.30
2023-05-07T06:41:42.352Z,5.70
2023-05-07T06:52:08.884Z,4.80
2023-05-07T07:02:34.635Z,7.00
2023-05-07T07:13:00.221Z,5.70
2023-05-07T07:23:26.156Z,4.40
2023-05-07T07:33:53.286Z,5.60
2023-05-07T07:44:19.037Z,5.90
2023-05-07T07:54:45.100Z,6.00
2023-05-07T08:05:11.765Z,4.80
2023-05-07T08:15:38.009Z,3.20
2023-05-07T08:26:03.787Z,5.70
2023-05-07T08:36:29.969Z,4.10
2023-05-07T08:46:58.050Z,4.30
2023-05-07T08:57:25.446Z,5.10
2023-05-07T09:07:53.289Z,4.50
2023-05-07T09:18:20.210Z,4.30
2023-05-07T09:28:47.642Z,4.40
2023-05-07T09:39:14.205Z,4.80
2023-05-07T09:49:43.464Z,5.10
2023-05-07T10:00:11.793Z,7.20
2023-05-07T10:10:38.079Z,4.60
2023-05-07T10:21:09.236Z,3.90
2023-05-07T10:31:55.561Z,7.30
2023-05-07T10:42:21.331Z,6.40
2023-05-07T10:52:47.278Z,6.70
2023-05-07T11:03:13.248Z,11.60
2023-05-07T11:13:50.446Z,8.90
2023-05-07T11:24:17.801Z,6.10
2023-05-07T11:34:43.368Z,10.60
2023-05-07T11:45:11.384Z,12.70
2023-05-07T11:55:37.863Z,13.00
2023-05-07T12:06:04.805Z,10.50
2023-05-07T12:16:31.152Z,12.70
2023-05-07T12:26:56.790Z,12.00
2023-05-07T12:37:28.977Z,7.10
2023-05-07T12:47:57.185Z,7.80
2023-05-07T12:58:26.464Z,6.70
2023-05-07T13:08:51.876Z,6.70
2023-05-07T13:19:18.608Z,5.80
2023-05-07T13:29:44.326Z,5.90
2023-05-07T13:40:12.354Z,4.80
2023-05-07T13:50:37.970Z,6.10
2023-05-07T14:01:03.584Z,5.70
2023-05-07T14:11:29.136Z,3.80
2023-05-07T14:21:55.302Z,4.20
2023-05-07T14:32:22.248Z,5.20
2023-05-07T14:42:47.982Z,4.80
2023-05-07T14:53:14.134Z,3.30
2023-05-07T15:03:40.209Z,4.00
2023-05-07T15:14:05.863Z,6.60
2023-05-07T15:24:31.982Z,5.00
2023-05-07T15:34:58.096Z,5.50
2023-05-07T15:45:24.308Z,5.60
2023-05-07T15:55:49.970Z,4.30
2023-05-07T16:06:16.118Z,5.10
2023-05-07T16:16:41.782Z,7.90
2023-05-07T16:27:08.008Z,8.40
2023-05-07T16:37:34.896Z,6.60
2023-05-07T16:48:00.816Z,6.90
2023-05-07T16:58:27.385Z,8.00
2023-05-07T17:08:53.623Z,7.80
2023-05-07T17:19:19.417Z,8.00
2023-05-07T17:29:45.301Z,6.60
2023-05-07T17:40:12.877Z,8.40
2023-05-07T17:50:39.092Z,7.60
2023-05-07T18:01:04.943Z,5.90
2023-05-07T18:11:32.588Z,9.20
2023-05-07T18:21:58.405Z,9.30
2023-05-07T18:32:24.500Z,8.20
2023-05-07T18:42:50.651Z,8.30
2023-05-07T18:53:16.696Z,7.40
2023-05-07T19:03:42.703Z,12.70
2023-05-07T19:14:08.419Z,7.90
2023-05-07T19:24:34.715Z,7.10
2023-05-07T19:35:00.590Z,8.30
2023-05-07T19:45:27.100Z,7.90
2023-05-07T19:56:01.136Z,7.10
2023-05-07T20:06:27.139Z,6.50
2023-05-07T20:16:53.026Z,8.10
2023-05-07T20:27:22.192Z,10.80
2023-05-07T20:37:47.759Z,8.10
2023-05-07T20:48:14.635Z,6.90
2023-05-07T20:58:40.581Z,8.60
2023-05-07T21:09:06.926Z,7.40
2023-05-07T21:19:32.468Z,6.90
2023-05-07T21:30:04.904Z,5.90
2023-05-07T21:40:31.875Z,7.30
2023-05-07T21:51:04.306Z,5.50
2023-05-07T22:01:30.362Z,5.70
2023-05-07T22:11:56.900Z,6.70
2023-05-07T22:22:22.777Z,7.70
2023-05-07T22:32:48.776Z,9.40
2023-05-07T22:43:14.719Z,6.40
2023-05-07T22:53:40.876Z,5.90
2023-05-07T23:04:06.718Z,6.50
2023-05-07T23:14:32.712Z,4.70
2023-05-07T23:24:58.553Z,5.70
2023-05-07T23:35:24.490Z,5.80
2023-05-07T23:45:50.282Z,6.60
2023-05-07T23:56:16.341Z,7.00
